Station Historical Data
Daily Summary for November 1, 2017 Units:  English    Metric   Both
« Previous Day
Next Day »
Daily Weekly Monthly Yearly Custom
  High: Low: Average:
Temperature: 70.2 °F 46.6 °F 56.2 °F
Dew Point: 55.4 °F 44.4 °F 50.2 °F
Humidity: 93% 51% 82%
Wind Speed: 2.3mph 0.0mph 0.2mph
Wind Gust: 2.3mph - -
Wind- - WSW
Pressure: 30.23 in 30.14 in -
Precipitation: 0.02 in    
Historical Graphs
 
 
Tabular Data for November 1, 2017
Time Temperature Dew Point Pressure Wind Wind Speed Wind Gust Humidity Rainfall Rate (Hourly) solar Conditions
00:04 49.1 °F 46.3 °F 30.16 in Calm     90% 0.00 in WeatherDisplay:10.37 W/m2 CLR
00:09 49.3 °F 46.8 °F 30.16 in Calm     91% 0.00 in WeatherDisplay:10.37 W/m2 CLR
00:14 49.3 °F 46.5 °F 30.16 in Calm     90% 0.00 in WeatherDisplay:10.37 W/m2 CLR
00:19 49.1 °F 46.3 °F 30.16 in Calm     90% 0.00 in WeatherDisplay:10.37 W/m2 CLR
00:24 49.3 °F 46.8 °F 30.16 in Calm     91% 0.00 in WeatherDisplay:10.37 W/m2 CLR
00:29 49.6 °F 47.1 °F 30.16 in Calm     91% 0.00 in WeatherDisplay:10.37 W/m2 CLR
00:34 49.9 °F 47.4 °F 30.16 in Calm     91% 0.00 in WeatherDisplay:10.37 W/m2 CLR
00:39 49.6 °F 46.8 °F 30.16 in Calm     90% 0.00 in WeatherDisplay:10.37 W/m2 CLR
00:44 49.3 °F 46.5 °F 30.15 in Calm     90% 0.00 in WeatherDisplay:10.37 W/m2 CLR
00:49 49.7 °F 47.2 °F 30.16 in Calm     91% 0.00 in WeatherDisplay:10.37 W/m2 CLR
00:53 50.1 °F 47.6 °F 30.16 in Calm     91% 0.00 in WeatherDisplay:10.37 W/m2 CLR
00:58 50.3 °F 47.8 °F 30.16 in Calm     91% 0.00 in WeatherDisplay:10.37 W/m2 CLR
01:03 49.9 °F 47.1 °F 30.16 in Calm     90% 0.00 in WeatherDisplay:10.37 W/m2 CLR
01:09 49.3 °F 46.2 °F 30.16 in Calm     89% 0.00 in WeatherDisplay:10.37 W/m2 CLR
01:14 49.0 °F 45.9 °F 30.16 in Calm     89% 0.00 in WeatherDisplay:10.37 W/m2 CLR
01:19 48.8 °F 46.0 °F 30.16 in Calm     90% 0.00 in WeatherDisplay:10.37 W/m2 CLR
01:24 48.6 °F 45.8 °F 30.16 in Calm     90% 0.00 in WeatherDisplay:10.37 W/m2 CLR
01:29 48.5 °F 45.7 °F 30.16 in Calm     90% 0.00 in WeatherDisplay:10.37 W/m2 CLR
01:34 48.4 °F 45.6 °F 30.16 in Calm     90% 0.00 in WeatherDisplay:10.37 W/m2 CLR
01:39 48.4 °F 45.9 °F 30.16 in Calm     91% 0.00 in WeatherDisplay:10.37 W/m2 CLR
01:44 48.2 °F 45.4 °F 30.16 in Calm     90% 0.00 in WeatherDisplay:10.37 W/m2 CLR
01:49 48.2 °F 45.7 °F 30.16 in Calm     91% 0.00 in WeatherDisplay:10.37 W/m2 CLR
01:54 48.1 °F 45.6 °F 30.16 in Calm     91% 0.00 in WeatherDisplay:10.37 W/m2 CLR
01:59 48.2 °F 45.7 °F 30.16 in Calm     91% 0.00 in WeatherDisplay:10.37 W/m2 CLR
02:04 48.0 °F 45.5 °F 30.16 in Calm     91% 0.00 in WeatherDisplay:10.37 W/m2 CLR
02:09 47.9 °F 45.4 °F 30.16 in Calm     91% 0.00 in WeatherDisplay:10.37 W/m2 CLR
02:14 47.9 °F 45.4 °F 30.16 in Calm     91% 0.00 in WeatherDisplay:10.37 W/m2 CLR
02:19 48.4 °F 46.2 °F 30.15 in Calm     92% 0.00 in WeatherDisplay:10.37 W/m2 CLR
02:25 48.7 °F 46.5 °F 30.15 in Calm     92% 0.00 in WeatherDisplay:10.37 W/m2 CLR
02:30 48.5 °F 46.0 °F 30.15 in Calm     91% 0.00 in WeatherDisplay:10.37 W/m2 CLR
02:35 48.5 °F 46.0 °F 30.15 in Calm     91% 0.00 in WeatherDisplay:10.37 W/m2 CLR
02:40 48.2 °F 45.7 °F 30.15 in Calm     91% 0.00 in WeatherDisplay:10.37 W/m2 CLR
02:45 48.0 °F 45.5 °F 30.16 in Calm     91% 0.00 in WeatherDisplay:10.37 W/m2 CLR
02:50 48.0 °F 45.5 °F 30.15 in Calm     91% 0.00 in WeatherDisplay:10.37 W/m2 CLR
02:55 48.0 °F 45.5 °F 30.15 in Calm     91% 0.00 in WeatherDisplay:10.37 W/m2 CLR
03:00 47.9 °F 45.4 °F 30.16 in Calm     91% 0.00 in WeatherDisplay:10.37 W/m2 CLR
03:05 47.7 °F 45.2 °F 30.16 in Calm     91% 0.00 in WeatherDisplay:10.37 W/m2 CLR
03:10 47.6 °F 45.1 °F 30.16 in Calm     91% 0.00 in WeatherDisplay:10.37 W/m2 CLR
03:15 47.5 °F 45.0 °F 30.17 in Calm     91% 0.00 in WeatherDisplay:10.37 W/m2 CLR
03:20 47.3 °F 44.8 °F 30.17 in Calm     91% 0.00 in WeatherDisplay:10.37 W/m2 CLR
03:25 47.3 °F 44.8 °F 30.17 in Calm     91% 0.00 in WeatherDisplay:10.37 W/m2 CLR
03:30 47.2 °F 44.7 °F 30.17 in Calm     91% 0.00 in WeatherDisplay:10.37 W/m2 CLR
03:35 47.1 °F 44.6 °F 30.17 in Calm     91% 0.00 in WeatherDisplay:10.37 W/m2 CLR
03:36 47.1 °F 44.6 °F 30.16 in Calm     91% 0.00 in WeatherDisplay:10.37 W/m2 CLR
03:41 47.0 °F 44.5 °F 30.17 in Calm     91% 0.00 in WeatherDisplay:10.37 W/m2 CLR
03:46 46.9 °F 44.4 °F 30.17 in Calm     91% 0.00 in WeatherDisplay:10.37 W/m2 CLR
03:51 46.9 °F 44.4 °F 30.17 in Calm     91% 0.00 in WeatherDisplay:10.37 W/m2 CLR
03:56 46.9 °F 44.4 °F 30.16 in Calm     91% 0.00 in WeatherDisplay:10.37 W/m2 CLR
04:01 46.9 °F 44.4 °F 30.16 in Calm     91% 0.00 in WeatherDisplay:10.37 W/m2 CLR
04:06 46.9 °F 44.7 °F 30.16 in Calm     92% 0.00 in WeatherDisplay:10.37 W/m2 CLR
04:11 47.1 °F 44.9 °F 30.16 in Calm     92% 0.00 in WeatherDisplay:10.37 W/m2 CLR
04:16 47.1 °F 44.9 °F 30.16 in Calm     92% 0.00 in WeatherDisplay:10.37 W/m2 CLR
04:21 47.0 °F 44.8 °F 30.16 in Calm     92% 0.00 in WeatherDisplay:10.37 W/m2 CLR
04:26 46.9 °F 44.7 °F 30.15 in Calm     92% 0.00 in WeatherDisplay:10.37 W/m2 CLR
04:31 46.9 °F 44.7 °F 30.15 in Calm     92% 0.00 in WeatherDisplay:10.37 W/m2 CLR
04:36 46.8 °F 44.6 °F 30.15 in Calm     92% 0.00 in WeatherDisplay:10.37 W/m2 CLR
04:41 46.8 °F 44.6 °F 30.15 in Calm     92% 0.00 in WeatherDisplay:10.37 W/m2 CLR
04:46 46.8 °F 44.6 °F 30.15 in Calm     92% 0.00 in WeatherDisplay:10.37 W/m2 CLR
04:51 46.7 °F 44.5 °F 30.15 in Calm     92% 0.00 in WeatherDisplay:10.37 W/m2 CLR
04:56 46.7 °F 44.5 °F 30.15 in Calm     92% 0.00 in WeatherDisplay:10.37 W/m2 CLR
05:02 46.6 °F 44.4 °F 30.15 in Calm     92% 0.00 in WeatherDisplay:10.37 W/m2 CLR
05:07 46.7 °F 44.5 °F 30.15 in Calm     92% 0.00 in WeatherDisplay:10.37 W/m2 CLR
05:12 46.9 °F 44.7 °F 30.15 in Calm     92% 0.00 in WeatherDisplay:10.37 W/m2 CLR
05:17 47.5 °F 45.6 °F 30.16 in Calm     93% 0.00 in WeatherDisplay:10.37 W/m2 CLR
05:22 47.6 °F 45.7 °F 30.16 in Calm     93% 0.00 in WeatherDisplay:10.37 W/m2 CLR
05:27 47.6 °F 45.4 °F 30.16 in Calm     92% 0.00 in WeatherDisplay:10.37 W/m2 CLR
05:32 47.5 °F 45.3 °F 30.16 in Calm     92% 0.00 in WeatherDisplay:10.37 W/m2 CLR
05:37 47.5 °F 45.3 °F 30.15 in Calm     92% 0.00 in WeatherDisplay:10.37 W/m2 CLR
05:42 47.2 °F 45.0 °F 30.15 in Calm     92% 0.00 in WeatherDisplay:10.37 W/m2 CLR
05:45 68.9 °F 51.1 °F 30.17 in Calm     53% 0.00 in WeatherDisplay:10.37 W/m2
05:47 47.1 °F 44.9 °F 30.15 in Calm     92% 0.00 in WeatherDisplay:10.37 W/m2 CLR
05:52 46.9 °F 44.7 °F 30.16 in Calm     92% 0.00 in WeatherDisplay:10.37 W/m2 CLR
05:57 46.8 °F 44.6 °F 30.16 in Calm     92% 0.00 in WeatherDisplay:10.37 W/m2 CLR
06:02 46.7 °F 44.5 °F 30.16 in Calm     92% 0.00 in WeatherDisplay:10.37 W/m2 CLR
06:07 46.9 °F 44.7 °F 30.16 in Calm     92% 0.00 in WeatherDisplay:10.37 W/m2 CLR
06:12 47.0 °F 44.8 °F 30.16 in Calm     92% 0.00 in WeatherDisplay:10.37 W/m2 CLR
06:17 47.0 °F 44.8 °F 30.16 in Calm     92% 0.00 in WeatherDisplay:10.37 W/m2 CLR
06:22 47.2 °F 45.3 °F 30.16 in Calm     93% 0.00 in WeatherDisplay:10.37 W/m2 CLR
06:27 47.3 °F 45.4 °F 30.16 in Calm     93% 0.00 in WeatherDisplay:10.37 W/m2 CLR
06:32 47.3 °F 45.1 °F 30.16 in Calm     92% 0.00 in WeatherDisplay:10.37 W/m2 CLR
06:38 47.2 °F 45.0 °F 30.16 in Calm     92% 0.00 in WeatherDisplay:10.37 W/m2 CLR
06:43 47.1 °F 44.9 °F 30.16 in Calm     92% 0.00 in WeatherDisplay:10.37 W/m2 CLR
06:48 47.2 °F 45.0 °F 30.16 in Calm     92% 0.00 in WeatherDisplay:10.37 W/m2 CLR
06:53 47.4 °F 45.5 °F 30.16 in Calm     93% 0.00 in WeatherDisplay:10.37 W/m2 CLR
06:58 47.4 °F 45.5 °F 30.16 in Calm     93% 0.00 in WeatherDisplay:10.37 W/m2 CLR
07:03 47.4 °F 45.2 °F 30.16 in Calm     92% 0.00 in WeatherDisplay:10.37 W/m2 FEW
07:08 47.3 °F 45.1 °F 30.16 in Calm     92% 0.00 in WeatherDisplay:10.37 W/m2 FEW
07:13 47.3 °F 45.1 °F 30.16 in Calm     92% 0.00 in WeatherDisplay:10.37 W/m2 FEW
07:18 47.3 °F 45.1 °F 30.16 in Calm     92% 0.00 in WeatherDisplay:10.37 W/m2 FEW
07:23 47.2 °F 45.0 °F 30.17 in Calm     92% 0.00 in WeatherDisplay:10.37 W/m2 FEW
07:28 47.3 °F 45.1 °F 30.17 in Calm     92% 0.00 in WeatherDisplay:10.37 W/m2 FEW
07:33 47.3 °F 45.1 °F 30.17 in Calm     92% 0.00 in WeatherDisplay:10.37 W/m2 FEW
07:39 47.3 °F 45.1 °F 30.17 in Calm     92% 0.00 in WeatherDisplay:10.37 W/m2 FEW
07:40 47.2 °F 45.0 °F 30.17 in Calm     92% 0.00 in WeatherDisplay:10.37 W/m2 FEW
07:45 47.2 °F 45.0 °F 30.17 in Calm     92% 0.00 in WeatherDisplay:10.37 W/m2 FEW
07:50 47.2 °F 45.0 °F 30.17 in Calm     92% 0.00 in WeatherDisplay:10.37 W/m2 FEW
07:56 47.1 °F 44.9 °F 30.17 in Calm     92% 0.00 in WeatherDisplay:10.37 W/m2 FEW
08:01 47.1 °F 44.9 °F 30.17 in Calm     92% 0.00 in WeatherDisplay:10.37 W/m2 FEW
08:06 47.0 °F 44.8 °F 30.17 in Calm     92% 0.00 in WeatherDisplay:10.37 W/m2 FEW
08:11 47.0 °F 44.8 °F 30.17 in Calm     92% 0.00 in WeatherDisplay:10.37 W/m2 FEW
08:16 46.9 °F 44.7 °F 30.18 in Calm     92% 0.00 in WeatherDisplay:10.37 W/m2 FEW
08:21 47.1 °F 44.9 °F 30.18 in Calm     92% 0.00 in WeatherDisplay:10.37 W/m2 FEW
08:26 47.2 °F 45.0 °F 30.18 in Calm     92% 0.00 in WeatherDisplay:10.37 W/m2 FEW
08:31 47.4 °F 45.5 °F 30.18 in Calm     93% 0.00 in WeatherDisplay:10.37 W/m2 FEW
08:36 47.6 °F 45.7 °F 30.18 in Calm     93% 0.00 in WeatherDisplay:10.37 W/m2 FEW
08:41 47.7 °F 45.8 °F 30.18 in Calm     93% 0.00 in WeatherDisplay:10.37 W/m2 FEW
08:46 47.9 °F 46.0 °F 30.18 in Calm     93% 0.00 in WeatherDisplay:10.37 W/m2 FEW
08:51 48.1 °F 46.2 °F 30.19 in Calm     93% 0.00 in WeatherDisplay:10.37 W/m2 FEW
08:56 48.3 °F 46.4 °F 30.19 in Calm     93% 0.00 in WeatherDisplay:10.37 W/m2 FEW
09:01 48.5 °F 46.6 °F 30.19 in Calm     93% 0.00 in WeatherDisplay:10.37 W/m2 BKN
09:06 48.8 °F 46.9 °F 30.19 in Calm     93% 0.00 in WeatherDisplay:10.37 W/m2 BKN
09:11 49.1 °F 47.2 °F 30.20 in Calm     93% 0.00 in WeatherDisplay:10.37 W/m2 BKN
09:16 49.7 °F 47.8 °F 30.20 in Calm     93% 0.00 in WeatherDisplay:10.37 W/m2 BKN
09:21 50.4 °F 48.5 °F 30.20 in Calm     93% 0.00 in WeatherDisplay:10.37 W/m2 BKN
09:26 51.0 °F 49.0 °F 30.20 in Calm     93% 0.00 in WeatherDisplay:10.37 W/m2 BKN
09:31 51.7 °F 49.5 °F 30.20 in Calm     92% 0.00 in WeatherDisplay:10.37 W/m2 BKN
09:37 52.5 °F 49.9 °F 30.20 in Calm     91% 0.00 in WeatherDisplay:10.37 W/m2 BKN
09:42 53.0 °F 49.5 °F 30.20 in Calm     88% 0.00 in WeatherDisplay:10.37 W/m2 BKN
09:47 53.5 °F 50.0 °F 30.21 in Calm     88% 0.00 in WeatherDisplay:10.37 W/m2 BKN
09:52 53.9 °F 49.8 °F 30.21 in Calm     86% 0.00 in WeatherDisplay:10.37 W/m2 BKN
09:57 54.4 °F 50.3 °F 30.22 in Calm     86% 0.00 in WeatherDisplay:10.37 W/m2 BKN
10:02 55.1 °F 51.0 °F 30.22 in Calm     86% 0.00 in WeatherDisplay:10.37 W/m2 BKN
10:07 56.0 °F 51.2 °F 30.23 in Calm     84% 0.00 in WeatherDisplay:10.37 W/m2 BKN
10:12 56.5 °F 51.4 °F 30.23 in Calm     83% 0.00 in WeatherDisplay:10.37 W/m2 BKN
10:17 57.1 °F 51.7 °F 30.22 in Calm     82% 0.00 in WeatherDisplay:10.37 W/m2 BKN
10:22 57.6 °F 51.8 °F 30.22 in Calm     81% 0.00 in WeatherDisplay:10.37 W/m2 BKN
10:27 58.3 °F 52.2 °F 30.22 in Calm     80% 0.00 in WeatherDisplay:10.37 W/m2 BKN
10:32 59.0 °F 52.1 °F 30.22 in Calm     78% 0.00 in WeatherDisplay:10.37 W/m2 BKN
10:37 59.5 °F 53.0 °F 30.22 in Calm     79% 0.00 in WeatherDisplay:10.37 W/m2 BKN
10:42 59.9 °F 53.0 °F 30.22 in Calm     78% 0.00 in WeatherDisplay:10.37 W/m2 BKN
10:47 60.2 °F 52.6 °F 30.23 in Calm     76% 0.00 in WeatherDisplay:10.37 W/m2 BKN
10:52 60.8 °F 53.2 °F 30.23 in Calm     76% 0.00 in WeatherDisplay:10.37 W/m2 BKN
10:57 61.4 °F 51.9 °F 30.23 in NW 1.2 mph 1.2 mph 71% 0.00 in WeatherDisplay:10.37 W/m2 BKN
11:03 61.9 °F 52.4 °F 30.23 in West 1.2 mph 1.2 mph 71% 0.00 in WeatherDisplay:10.37 W/m2 BKN
11:08 62.4 °F 52.5 °F 30.23 in West 1.2 mph   70% 0.00 in WeatherDisplay:10.37 W/m2 BKN
11:13 62.8 °F 52.5 °F 30.23 in West 1.2 mph   69% 0.00 in WeatherDisplay:10.37 W/m2 BKN
11:18 62.9 °F 52.6 °F 30.23 in Calm     69% 0.00 in WeatherDisplay:10.37 W/m2 BKN
11:23 63.3 °F 52.2 °F 30.23 in Calm     67% 0.00 in WeatherDisplay:10.37 W/m2 BKN
11:28 63.6 °F 52.8 °F 30.23 in Calm     68% 0.00 in WeatherDisplay:10.37 W/m2 BKN
11:33 64.0 °F 52.0 °F 30.23 in West 1.2 mph 1.2 mph 65% 0.00 in WeatherDisplay:10.37 W/m2 BKN
11:38 64.3 °F 52.7 °F 30.23 in West 1.2 mph 1.2 mph 66% 0.00 in WeatherDisplay:10.37 W/m2 BKN
11:43 64.7 °F 52.7 °F 30.22 in West 1.2 mph   65% 0.00 in WeatherDisplay:10.37 W/m2 BKN
11:48 64.8 °F 51.9 °F 30.22 in West 2.3 mph 2.3 mph 63% 0.00 in WeatherDisplay:10.37 W/m2 BKN
11:53 64.8 °F 52.3 °F 30.22 in Calm     64% 0.00 in WeatherDisplay:10.37 W/m2 BKN
11:58 64.9 °F 52.8 °F 30.21 in North 1.2 mph   65% 0.00 in WeatherDisplay:10.37 W/m2 BKN
12:03 65.3 °F 52.8 °F 30.21 in NNE 1.2 mph   64% 0.00 in WeatherDisplay:10.37 W/m2 BKN
12:08 65.7 °F 53.2 °F 30.21 in Calm     64% 0.00 in WeatherDisplay:10.37 W/m2 BKN
12:13 66.3 °F 52.9 °F 30.21 in West 1.2 mph 1.2 mph 62% 0.00 in WeatherDisplay:10.37 W/m2 BKN
12:18 66.9 °F 53.0 °F 30.21 in Calm     61% 0.00 in WeatherDisplay:10.37 W/m2 BKN
12:23 67.2 °F 53.7 °F 30.20 in Calm     62% 0.00 in WeatherDisplay:10.37 W/m2 BKN
12:28 67.3 °F 52.9 °F 30.20 in WNW 1.2 mph   60% 0.00 in WeatherDisplay:10.37 W/m2 BKN
12:34 67.6 °F 52.8 °F 30.20 in NW 1.2 mph 1.2 mph 59% 0.00 in WeatherDisplay:10.37 W/m2 BKN
12:39 67.9 °F 52.6 °F 30.20 in Calm     58% 0.00 in WeatherDisplay:10.37 W/m2 BKN
12:44 67.9 °F 53.0 °F 30.19 in East 2.3 mph 2.3 mph 59% 0.00 in WeatherDisplay:10.37 W/m2 BKN
12:49 68.1 °F 51.3 °F 30.19 in WNW 2.3 mph 2.3 mph 55% 0.00 in WeatherDisplay:10.37 W/m2 BKN
12:54 68.1 °F 50.8 °F 30.19 in West 1.2 mph 1.2 mph 54% 0.00 in WeatherDisplay:10.37 W/m2 BKN
12:59 68.0 °F 51.7 °F 30.19 in WNW 1.2 mph 1.2 mph 56% 0.00 in WeatherDisplay:10.37 W/m2 BKN
13:04 68.4 °F 53.0 °F 30.18 in WNW 1.2 mph 1.2 mph 58% 0.00 in WeatherDisplay:10.37 W/m2 BKN
13:09 68.4 °F 50.6 °F 30.18 in NE 2.3 mph 2.3 mph 53% 0.00 in WeatherDisplay:10.37 W/m2 BKN
13:14 68.3 °F 52.0 °F 30.18 in NW 1.2 mph 1.2 mph 56% 0.00 in WeatherDisplay:10.37 W/m2 BKN
13:19 68.4 °F 51.6 °F 30.18 in West 2.0 mph 2.0 mph 55% 0.00 in WeatherDisplay:10.37 W/m2 BKN
13:24 68.5 °F 51.7 °F 30.18 in WNW 1.2 mph 1.2 mph 55% 0.00 in WeatherDisplay:10.37 W/m2 BKN
13:29 68.8 °F 52.0 °F 30.17 in NW 2.3 mph 2.3 mph 55% 0.00 in WeatherDisplay:10.37 W/m2 BKN
13:34 68.8 °F 50.5 °F 30.17 in NNE 1.2 mph   52% 0.00 in WeatherDisplay:10.37 W/m2 BKN
13:39 68.9 °F 51.6 °F 30.17 in NNE 1.2 mph   54% 0.00 in WeatherDisplay:10.37 W/m2 BKN
13:44 68.9 °F 51.1 °F 30.17 in SSW 1.2 mph 1.2 mph 53% 0.00 in WeatherDisplay:10.37 W/m2 BKN
13:49 69.0 °F 51.7 °F 30.16 in West 1.2 mph 1.2 mph 54% 0.00 in WeatherDisplay:10.37 W/m2 BKN
13:54 68.9 °F 50.5 °F 30.16 in West 2.3 mph 2.3 mph 52% 0.00 in WeatherDisplay:10.37 W/m2 BKN
14:00 68.5 °F 51.7 °F 30.16 in Calm     55% 0.00 in WeatherDisplay:10.37 W/m2 BKN
14:04 68.6 °F 51.8 °F 30.16 in WNW 1.2 mph   55% 0.00 in WeatherDisplay:10.37 W/m2 BKN
14:10 69.3 °F 52.4 °F 30.16 in WNW 1.2 mph   55% 0.00 in WeatherDisplay:10.37 W/m2 BKN
14:15 70.1 °F 52.2 °F 30.16 in WNW 1.2 mph 1.2 mph 53% 0.00 in WeatherDisplay:10.37 W/m2 BKN
14:20 70.0 °F 51.1 °F 30.16 in Calm   1.0 mph 51% 0.00 in WeatherDisplay:10.37 W/m2 BKN
14:26 70.2 °F 51.7 °F 30.15 in Calm     52% 0.00 in WeatherDisplay:10.37 W/m2 BKN
14:31 70.0 °F 51.0 °F 30.15 in West 2.3 mph 2.3 mph 51% 0.00 in WeatherDisplay:10.37 W/m2 BKN
14:36 69.7 °F 51.3 °F 30.15 in WNW 1.2 mph   52% 0.00 in WeatherDisplay:10.37 W/m2 BKN
14:41 69.4 °F 52.0 °F 30.15 in Calm     54% 0.00 in WeatherDisplay:10.37 W/m2 BKN
14:46 69.4 °F 52.0 °F 30.15 in Calm     54% 0.00 in WeatherDisplay:10.37 W/m2 BKN
14:51 69.6 °F 52.2 °F 30.15 in Calm     54% 0.00 in WeatherDisplay:10.37 W/m2 BKN
14:56 69.4 °F 51.0 °F 30.15 in Calm     52% 0.00 in WeatherDisplay:10.37 W/m2 BKN
15:01 69.2 °F 50.8 °F 30.15 in WNW 1.2 mph   52% 0.00 in WeatherDisplay:10.37 W/m2 BKN
15:06 68.9 °F 51.1 °F 30.14 in WNW 1.2 mph   53% 0.00 in WeatherDisplay:10.37 W/m2 BKN
15:11 68.8 °F 52.5 °F 30.14 in Calm     56% 0.00 in WeatherDisplay:10.37 W/m2 BKN
15:16 68.7 °F 52.8 °F 30.14 in Calm     57% 0.00 in WeatherDisplay:10.37 W/m2 BKN
15:21 68.5 °F 53.6 °F 30.14 in Calm     59% 0.00 in WeatherDisplay:10.37 W/m2 BKN
15:26 68.3 °F 53.4 °F 30.14 in Calm     59% 0.00 in WeatherDisplay:10.37 W/m2 BKN
15:31 68.1 °F 52.8 °F 30.14 in Calm     58% 0.00 in WeatherDisplay:10.37 W/m2 BKN
15:37 68.0 °F 52.2 °F 30.15 in Calm     57% 0.00 in WeatherDisplay:10.37 W/m2 BKN
15:42 68.0 °F 52.2 °F 30.15 in Calm     57% 0.00 in WeatherDisplay:10.37 W/m2 BKN
15:47 68.0 °F 52.2 °F 30.15 in NW 1.2 mph 1.2 mph 57% 0.00 in WeatherDisplay:10.37 W/m2 BKN
15:52 67.9 °F 52.1 °F 30.14 in Calm     57% 0.00 in WeatherDisplay:10.37 W/m2 BKN
15:57 67.9 °F 52.6 °F 30.14 in Calm     58% 0.00 in WeatherDisplay:10.37 W/m2 BKN
16:02 67.8 °F 52.9 °F 30.14 in Calm     59% 0.00 in WeatherDisplay:10.37 W/m2 BKN
16:07 67.6 °F 53.7 °F 30.14 in Calm     61% 0.00 in WeatherDisplay:10.37 W/m2 BKN
16:12 67.3 °F 53.4 °F 30.15 in Calm     61% 0.00 in WeatherDisplay:10.37 W/m2 BKN
16:17 66.9 °F 53.0 °F 30.15 in Calm     61% 0.00 in WeatherDisplay:10.37 W/m2 BKN
16:22 66.5 °F 53.1 °F 30.15 in Calm     62% 0.00 in WeatherDisplay:10.37 W/m2 OVC
16:27 66.2 °F 53.7 °F 30.15 in Calm     64% 0.00 in WeatherDisplay:10.37 W/m2 OVC
16:32 65.9 °F 53.8 °F 30.15 in Calm     65% 0.00 in WeatherDisplay:10.37 W/m2 OVC
16:37 65.8 °F 53.7 °F 30.15 in Calm     65% 0.00 in WeatherDisplay:10.37 W/m2 OVC
16:42 65.6 °F 52.7 °F 30.16 in Calm     63% 0.00 in WeatherDisplay:10.37 W/m2 OVC
16:48 65.3 °F 52.8 °F 30.16 in Calm     64% 0.00 in WeatherDisplay:10.37 W/m2 OVC
16:53 65.1 °F 53.5 °F 30.16 in Calm     66% 0.00 in WeatherDisplay:10.37 W/m2 OVC
16:58 64.7 °F 53.5 °F 30.16 in Calm     67% 0.00 in WeatherDisplay:10.37 W/m2 OVC
17:03 64.3 °F 54.7 °F 30.16 in Calm     71% 0.00 in WeatherDisplay:10.37 W/m2 -RA
17:08 63.6 °F 55.2 °F 30.16 in Calm     74% 0.00 in WeatherDisplay:10.37 W/m2 -RA
17:13 62.8 °F 55.1 °F 30.16 in Calm     76% 0.00 in WeatherDisplay:10.37 W/m2 -RA
17:18 61.9 °F 55.3 °F 30.16 in Calm     79% 0.00 in WeatherDisplay:10.37 W/m2 -RA
17:23 61.3 °F 55.4 °F 30.16 in Calm     81% 0.01 in WeatherDisplay:10.37 W/m2 -RA
17:28 60.6 °F 55.4 °F 30.16 in Calm     83% 0.02 in WeatherDisplay:10.37 W/m2 -RA
17:33 60.0 °F 55.2 °F 30.16 in Calm     84% 0.02 in WeatherDisplay:10.37 W/m2 -RA
17:38 59.5 °F 55.0 °F 30.15 in Calm     85% 0.02 in WeatherDisplay:10.37 W/m2 -RA
17:43 59.1 °F 54.9 °F 30.14 in Calm     86% 0.02 in WeatherDisplay:10.37 W/m2 -RA
17:48 58.9 °F 55.0 °F 30.14 in Calm     87% 0.02 in WeatherDisplay:10.37 W/m2 -RA
17:53 58.6 °F 54.7 °F 30.14 in Calm     87% 0.02 in WeatherDisplay:10.37 W/m2 -RA
17:58 58.4 °F 54.9 °F 30.14 in Calm     88% 0.02 in WeatherDisplay:10.37 W/m2 -RA
18:03 58.3 °F 54.4 °F 30.15 in Calm     87% 0.02 in WeatherDisplay:10.37 W/m2 -DZ
18:08 58.3 °F 54.4 °F 30.15 in Calm     87% 0.02 in WeatherDisplay:10.37 W/m2 -DZ
18:14 58.3 °F 54.4 °F 30.15 in Calm     87% 0.02 in WeatherDisplay:10.37 W/m2 -DZ
18:19 58.1 °F 54.6 °F 30.14 in Calm     88% 0.02 in WeatherDisplay:10.37 W/m2 -DZ
18:24 58.0 °F 54.5 °F 30.14 in Calm     88% 0.01 in WeatherDisplay:10.37 W/m2 -DZ
18:29 57.9 °F 54.4 °F 30.14 in Calm     88% 0.00 in WeatherDisplay:10.37 W/m2 -DZ
18:34 57.8 °F 54.3 °F 30.14 in Calm     88% 0.00 in WeatherDisplay:10.37 W/m2 -DZ
18:39 57.6 °F 54.1 °F 30.14 in Calm     88% 0.00 in WeatherDisplay:10.37 W/m2 -DZ
18:44 57.5 °F 54.3 °F 30.14 in Calm     89% 0.00 in WeatherDisplay:10.37 W/m2 OVC
18:49 57.4 °F 54.2 °F 30.14 in Calm     89% 0.00 in WeatherDisplay:10.37 W/m2 OVC
18:54 57.3 °F 54.1 °F 30.14 in Calm     89% 0.00 in WeatherDisplay:10.37 W/m2 OVC
18:59 57.4 °F 54.2 °F 30.14 in Calm     89% 0.00 in WeatherDisplay:10.37 W/m2 OVC
19:05 57.4 °F 54.5 °F 30.14 in Calm     90% 0.00 in WeatherDisplay:10.37 W/m2 OVC
19:10 57.4 °F 54.5 °F 30.15 in Calm     90% 0.00 in WeatherDisplay:10.37 W/m2 OVC
19:15 57.4 °F 54.5 °F 30.15 in Calm     90% 0.00 in WeatherDisplay:10.37 W/m2 OVC
19:20 57.5 °F 54.6 °F 30.15 in Calm     90% 0.00 in WeatherDisplay:10.37 W/m2 OVC
19:25 57.5 °F 54.6 °F 30.15 in Calm     90% 0.00 in WeatherDisplay:10.37 W/m2 OVC
19:30 57.5 °F 54.6 °F 30.15 in Calm     90% 0.00 in WeatherDisplay:10.37 W/m2 OVC
19:35 57.4 °F 54.5 °F 30.15 in Calm     90% 0.00 in WeatherDisplay:10.37 W/m2 OVC
19:40 57.5 °F 54.9 °F 30.15 in Calm     91% 0.00 in WeatherDisplay:10.37 W/m2 OVC
19:45 57.6 °F 55.0 °F 30.15 in Calm     91% 0.00 in WeatherDisplay:10.37 W/m2 OVC
19:50 57.6 °F 55.0 °F 30.14 in Calm     91% 0.00 in WeatherDisplay:10.37 W/m2 OVC
19:55 57.6 °F 55.0 °F 30.14 in Calm     91% 0.00 in WeatherDisplay:10.37 W/m2 OVC
20:00 57.8 °F 55.2 °F 30.15 in Calm     91% 0.00 in WeatherDisplay:10.37 W/m2 OVC
20:05 57.9 °F 55.3 °F 30.15 in Calm     91% 0.00 in WeatherDisplay:10.37 W/m2 OVC
20:10 58.0 °F 55.4 °F 30.15 in Calm     91% 0.00 in WeatherDisplay:10.37 W/m2 OVC
20:15 58.0 °F 55.4 °F 30.15 in Calm     91% 0.00 in WeatherDisplay:10.37 W/m2 OVC
20:20 57.9 °F 55.3 °F 30.15 in Calm     91% 0.00 in WeatherDisplay:10.37 W/m2 OVC
20:25 57.9 °F 55.3 °F 30.15 in Calm     91% 0.00 in WeatherDisplay:10.37 W/m2 OVC
20:26 57.9 °F 55.3 °F 30.15 in Calm     91% 0.00 in WeatherDisplay:10.37 W/m2 OVC
20:31 57.8 °F 55.2 °F 30.15 in Calm     91% 0.00 in WeatherDisplay:10.37 W/m2 OVC
20:36 57.7 °F 55.1 °F 30.15 in Calm     91% 0.00 in WeatherDisplay:10.37 W/m2 OVC
20:41 57.7 °F 55.1 °F 30.15 in Calm     91% 0.00 in WeatherDisplay:10.37 W/m2 OVC
20:46 57.7 °F 55.1 °F 30.15 in Calm     91% 0.00 in WeatherDisplay:10.37 W/m2 OVC
20:51 57.7 °F 55.1 °F 30.15 in Calm     91% 0.00 in WeatherDisplay:10.37 W/m2 OVC
20:56 57.8 °F 54.9 °F 30.15 in Calm     90% 0.00 in WeatherDisplay:10.37 W/m2 OVC
21:01 57.8 °F 54.9 °F 30.15 in Calm     90% 0.00 in WeatherDisplay:10.37 W/m2 OVC
21:06 57.7 °F 54.8 °F 30.15 in Calm     90% 0.00 in WeatherDisplay:10.37 W/m2 OVC
21:11 57.6 °F 54.7 °F 30.15 in Calm     90% 0.00 in WeatherDisplay:10.37 W/m2 OVC
21:17 57.6 °F 55.0 °F 30.15 in Calm     91% 0.00 in WeatherDisplay:10.37 W/m2 OVC
21:22 57.7 °F 54.8 °F 30.15 in Calm     90% 0.00 in WeatherDisplay:10.37 W/m2 OVC
21:27 57.8 °F 54.9 °F 30.15 in Calm     90% 0.00 in WeatherDisplay:10.37 W/m2 OVC
21:32 57.8 °F 54.9 °F 30.16 in Calm     90% 0.00 in WeatherDisplay:10.37 W/m2 OVC
21:37 57.8 °F 54.9 °F 30.16 in Calm     90% 0.00 in WeatherDisplay:10.37 W/m2 OVC
21:42 57.8 °F 54.9 °F 30.16 in Calm     90% 0.00 in WeatherDisplay:10.37 W/m2 OVC
21:47 57.7 °F 54.8 °F 30.16 in Calm     90% 0.00 in WeatherDisplay:10.37 W/m2 OVC
21:52 57.6 °F 54.7 °F 30.16 in Calm     90% 0.00 in WeatherDisplay:10.37 W/m2 OVC
21:57 57.6 °F 54.7 °F 30.16 in Calm     90% 0.00 in WeatherDisplay:10.37 W/m2 OVC
22:02 57.6 °F 54.7 °F 30.16 in Calm     90% 0.00 in WeatherDisplay:10.37 W/m2 OVC
22:07 57.6 °F 55.0 °F 30.16 in Calm     91% 0.00 in WeatherDisplay:10.37 W/m2 OVC
22:12 57.5 °F 54.9 °F 30.16 in Calm     91% 0.00 in WeatherDisplay:10.37 W/m2 OVC
22:17 57.5 °F 54.9 °F 30.17 in Calm     91% 0.00 in WeatherDisplay:10.37 W/m2 OVC
22:22 57.5 °F 54.9 °F 30.17 in Calm     91% 0.00 in WeatherDisplay:10.37 W/m2 OVC
22:27 57.6 °F 54.7 °F 30.17 in Calm     90% 0.00 in WeatherDisplay:10.37 W/m2 OVC
22:32 57.6 °F 54.7 °F 30.17 in Calm     90% 0.00 in WeatherDisplay:10.37 W/m2 OVC
22:37 57.6 °F 54.7 °F 30.18 in Calm     90% 0.00 in WeatherDisplay:10.37 W/m2 OVC
22:43 57.7 °F 54.8 °F 30.18 in Calm     90% 0.00 in WeatherDisplay:10.37 W/m2 OVC
22:48 57.6 °F 54.7 °F 30.18 in Calm     90% 0.00 in WeatherDisplay:10.37 W/m2 OVC
22:53 57.6 °F 54.7 °F 30.18 in Calm     90% 0.00 in WeatherDisplay:10.37 W/m2 OVC
22:58 57.5 °F 54.6 °F 30.18 in Calm     90% 0.00 in WeatherDisplay:10.37 W/m2 OVC
23:03 57.3 °F 54.4 °F 30.18 in Calm     90% 0.00 in WeatherDisplay:10.37 W/m2 BKN
23:08 57.2 °F 54.3 °F 30.18 in Calm     90% 0.00 in WeatherDisplay:10.37 W/m2 BKN
23:13 57.0 °F 54.1 °F 30.18 in Calm     90% 0.00 in WeatherDisplay:10.37 W/m2 BKN
23:18 56.7 °F 53.8 °F 30.18 in Calm     90% 0.00 in WeatherDisplay:10.37 W/m2 BKN
23:22 56.6 °F 53.7 °F 30.18 in Calm     90% 0.00 in WeatherDisplay:10.37 W/m2 BKN
23:27 56.6 °F 53.7 °F 30.18 in Calm     90% 0.00 in WeatherDisplay:10.37 W/m2 BKN
23:32 56.5 °F 53.6 °F 30.18 in Calm     90% 0.00 in WeatherDisplay:10.37 W/m2 BKN
23:37 56.3 °F 53.4 °F 30.18 in Calm     90% 0.00 in WeatherDisplay:10.37 W/m2 BKN
23:42 56.3 °F 53.4 °F 30.18 in Calm     90% 0.00 in WeatherDisplay:10.37 W/m2 BKN
23:47 56.3 °F 53.4 °F 30.18 in Calm     90% 0.00 in WeatherDisplay:10.37 W/m2 BKN
23:52 56.3 °F 53.4 °F 30.19 in Calm     90% 0.00 in WeatherDisplay:10.37 W/m2 BKN
23:57 56.3 °F 53.4 °F 30.19 in Calm     90% 0.00 in WeatherDisplay:10.37 W/m2 BKN
Piedmont Bend
Compliments of Weather Underground - 4 mb